createdAt,value
2022-12-03T00:03:05.530Z,30.12
2022-12-03T00:06:18.021Z,29.58
2022-12-03T00:09:26.549Z,26.90
2022-12-03T00:12:41.110Z,32.93
2022-12-03T00:15:58.359Z,33.03
2022-12-03T00:19:15.018Z,32.30
2022-12-03T00:22:40.327Z,30.27
2022-12-03T00:25:49.716Z,30.30
2022-12-03T00:29:21.140Z,34.23
2022-12-03T00:32:42.274Z,34.95
2022-12-03T00:36:28.077Z,27.10
2022-12-03T00:43:29.582Z,31.58
2022-12-03T00:47:06.230Z,27.73
2022-12-03T00:50:08.899Z,27.08
2022-12-03T00:53:45.271Z,29.77
2022-12-03T00:57:07.778Z,36.53
2022-12-03T01:00:19.994Z,34.22
2022-12-03T01:03:31.021Z,31.90
2022-12-03T01:06:40.543Z,34.03
2022-12-03T01:09:48.734Z,29.23
2022-12-03T01:12:57.025Z,35.78
2022-12-03T01:16:05.607Z,22.45
2022-12-03T01:19:15.014Z,35.03
2022-12-03T01:26:23.389Z,30.05
2022-12-03T01:29:25.236Z,32.60
2022-12-03T01:32:42.146Z,36.45
2022-12-03T01:36:03.994Z,30.93
2022-12-03T01:39:05.681Z,32.55
2022-12-03T01:42:36.350Z,32.83
2022-12-03T01:45:44.462Z,37.70
2022-12-03T01:48:58.063Z,34.22
2022-12-03T01:52:29.198Z,29.87
2022-12-03T01:55:31.397Z,32.63
2022-12-03T01:58:47.046Z,29.23
2022-12-03T02:01:56.068Z,34.50
2022-12-03T02:05:19.184Z,32.28
2022-12-03T02:08:38.054Z,33.57
2022-12-03T02:12:08.097Z,30.48
2022-12-03T02:15:31.315Z,30.50
2022-12-03T02:19:07.062Z,25.62
2022-12-03T02:22:35.684Z,28.40
2022-12-03T02:25:37.850Z,32.53
2022-12-03T02:28:56.020Z,30.35
2022-12-03T02:32:11.807Z,32.63
2022-12-03T02:35:38.003Z,29.95
2022-12-03T02:38:49.302Z,27.60
2022-12-03T02:42:10.856Z,31.47
2022-12-03T02:45:32.080Z,32.50
2022-12-03T02:48:45.021Z,33.63
2022-12-03T02:55:34.938Z,30.35
2022-12-03T02:59:09.060Z,29.77
2022-12-03T03:03:12.046Z,33.05
2022-12-03T03:06:32.715Z,31.48
2022-12-03T03:09:42.026Z,28.15
2022-12-03T03:13:01.744Z,29.33
2022-12-03T03:16:19.519Z,28.87
2022-12-03T03:19:35.979Z,32.53
2022-12-03T03:22:44.735Z,28.80
2022-12-03T03:26:06.031Z,31.77
2022-12-03T03:29:21.025Z,28.05
2022-12-03T03:32:29.069Z,33.87
2022-12-03T03:35:46.074Z,37.53
2022-12-03T03:38:54.014Z,29.95
2022-12-03T03:42:02.926Z,32.03
2022-12-03T03:45:21.588Z,28.60
2022-12-03T03:48:31.090Z,29.77
2022-12-03T03:51:46.166Z,31.55
2022-12-03T03:54:48.207Z,32.72
2022-12-03T03:58:02.990Z,32.95
2022-12-03T04:01:11.090Z,32.67
2022-12-03T04:04:29.045Z,34.17
2022-12-03T04:07:32.618Z,32.70
2022-12-03T04:10:47.011Z,28.95
2022-12-03T04:13:55.685Z,33.92
2022-12-03T04:17:04.093Z,30.23
2022-12-03T04:20:12.978Z,34.67
2022-12-03T04:23:37.018Z,33.13
2022-12-03T04:26:45.657Z,31.85
2022-12-03T04:29:54.015Z,32.88
2022-12-03T04:37:35.916Z,30.77
2022-12-03T04:40:53.039Z,30.67
2022-12-03T04:44:08.042Z,29.52
2022-12-03T04:47:12.683Z,46.95
2022-12-03T04:50:27.054Z,32.63
2022-12-03T04:53:29.014Z,34.70
2022-12-03T04:56:44.073Z,31.37
2022-12-03T04:59:55.362Z,32.33
2022-12-03T05:03:07.048Z,25.05
2022-12-03T05:06:15.086Z,35.13
2022-12-03T05:09:23.737Z,36.13
2022-12-03T05:12:39.020Z,29.27
2022-12-03T05:15:40.747Z,33.42
2022-12-03T05:18:55.204Z,31.95
2022-12-03T05:21:58.552Z,28.45
2022-12-03T05:25:34.092Z,30.67
2022-12-03T05:28:45.147Z,32.63
2022-12-03T05:31:54.597Z,33.75
2022-12-03T05:35:13.077Z,32.67
2022-12-03T05:38:28.046Z,29.37
2022-12-03T05:45:22.774Z,31.70
2022-12-03T05:48:38.835Z,36.13
2022-12-03T05:52:00.599Z,31.83
2022-12-03T05:55:18.761Z,36.03
2022-12-03T05:58:33.792Z,31.13
2022-12-03T06:01:45.068Z,34.08
2022-12-03T06:05:12.786Z,35.50
2022-12-03T06:08:21.462Z,37.05
2022-12-03T06:11:45.545Z,37.63
2022-12-03T06:14:55.103Z,26.93
2022-12-03T06:18:03.402Z,33.70
2022-12-03T06:21:17.771Z,35.55
2022-12-03T06:24:19.406Z,34.42
2022-12-03T06:27:33.781Z,35.90
2022-12-03T06:30:51.837Z,36.43
2022-12-03T06:34:06.884Z,35.97
2022-12-03T06:37:08.622Z,30.95
2022-12-03T06:40:23.759Z,35.35
2022-12-03T06:43:39.038Z,38.60
2022-12-03T06:46:47.813Z,32.73
2022-12-03T06:49:56.298Z,35.88
2022-12-03T06:53:05.627Z,30.92
2022-12-03T06:56:14.223Z,35.00
2022-12-03T06:59:22.751Z,28.75
2022-12-03T07:02:38.873Z,35.80
2022-12-03T07:06:05.081Z,39.85
2022-12-03T07:09:19.833Z,35.63
2022-12-03T07:12:22.311Z,40.38
2022-12-03T07:15:43.818Z,38.22
2022-12-03T07:18:51.780Z,38.43
2022-12-03T07:22:00.661Z,28.52
2022-12-03T07:25:08.767Z,36.50
2022-12-03T07:28:17.208Z,37.90
2022-12-03T07:31:25.789Z,33.58
2022-12-03T07:34:34.286Z,37.73
2022-12-03T07:37:42.865Z,39.22
2022-12-03T07:40:52.298Z,39.53
2022-12-03T07:44:13.774Z,40.83
2022-12-03T07:47:28.994Z,35.33
2022-12-03T07:54:35.892Z,31.37
2022-12-03T07:57:50.822Z,28.77
2022-12-03T08:00:59.400Z,34.53
2022-12-03T08:04:08.782Z,35.00
2022-12-03T08:07:17.337Z,35.80
2022-12-03T08:10:32.747Z,31.90
2022-12-03T08:13:40.762Z,34.28
2022-12-03T08:16:49.378Z,34.58
2022-12-03T08:19:59.807Z,34.65
2022-12-03T08:23:14.278Z,31.33
2022-12-03T08:26:32.841Z,33.15
2022-12-03T08:29:41.642Z,34.35
2022-12-03T08:32:51.518Z,35.35
2022-12-03T08:36:12.843Z,32.63
2022-12-03T08:39:41.776Z,36.43
2022-12-03T08:42:56.796Z,33.65
2022-12-03T08:46:18.821Z,33.45
2022-12-03T08:49:35.850Z,28.60
2022-12-03T08:53:04.846Z,27.95
2022-12-03T08:56:27.962Z,28.83
2022-12-03T08:59:45.607Z,31.27
2022-12-03T09:02:57.852Z,34.88
2022-12-03T09:17:43.835Z,32.25
2022-12-03T09:20:58.902Z,35.10
2022-12-03T09:24:09.694Z,33.05
2022-12-03T09:31:09.865Z,26.30
2022-12-03T09:35:12.341Z,33.17
2022-12-03T09:39:28.789Z,27.13
2022-12-03T09:47:09.919Z,31.12
2022-12-03T09:50:22.710Z,31.13
2022-12-03T09:53:44.223Z,30.40
2022-12-03T09:56:54.818Z,30.05
2022-12-03T10:00:03.905Z,31.60
2022-12-03T10:03:30.172Z,30.98
2022-12-03T10:06:45.608Z,26.97
2022-12-03T10:09:58.622Z,26.95
2022-12-03T10:13:35.846Z,31.30
2022-12-03T10:16:38.335Z,27.25
2022-12-03T10:19:59.839Z,27.05
2022-12-03T10:23:37.963Z,26.77
2022-12-03T10:26:46.849Z,28.75
2022-12-03T10:34:45.070Z,29.37
2022-12-03T10:37:59.246Z,27.48
2022-12-03T10:41:36.388Z,26.30
2022-12-03T10:44:48.357Z,24.73
2022-12-03T10:48:24.788Z,23.95
2022-12-03T10:55:45.037Z,21.23
2022-12-03T10:59:29.665Z,24.30
2022-12-03T11:03:20.156Z,19.95
2022-12-03T11:06:39.296Z,21.62
2022-12-03T11:09:51.729Z,19.05
2022-12-03T11:17:06.552Z,18.53
2022-12-03T11:20:50.875Z,23.00
2022-12-03T11:24:24.866Z,22.10
2022-12-03T11:27:26.787Z,22.13
2022-12-03T11:34:46.855Z,23.47
2022-12-03T11:38:42.659Z,21.70
2022-12-03T11:42:26.306Z,21.05
2022-12-03T11:45:44.815Z,22.35
2022-12-03T11:48:47.615Z,20.00
2022-12-03T11:52:35.717Z,20.73
2022-12-03T11:55:46.835Z,22.02
2022-12-03T11:59:04.600Z,21.30
2022-12-03T12:07:08.946Z,24.58
2022-12-03T12:14:51.908Z,21.80
2022-12-03T12:26:24.810Z,23.52
2022-12-03T12:29:44.107Z,22.03
2022-12-03T12:37:56.620Z,22.35
2022-12-03T12:42:05.035Z,26.40
2022-12-03T12:45:30.805Z,20.95
2022-12-03T12:48:35.016Z,23.40
2022-12-03T12:55:43.252Z,20.12
2022-12-03T12:59:29.146Z,20.35
2022-12-03T13:16:26.885Z,18.23
2022-12-03T13:31:00.925Z,22.27
2022-12-03T13:46:58.298Z,19.60
2022-12-03T13:50:32.079Z,18.80
2022-12-03T13:54:00.205Z,19.20
2022-12-03T14:16:29.118Z,21.75
2022-12-03T14:19:46.830Z,22.55
2022-12-03T14:23:42.431Z,21.60
2022-12-03T14:26:50.712Z,18.40
2022-12-03T15:23:15.996Z,18.25
2022-12-03T15:26:33.246Z,22.98
2022-12-03T16:08:15.986Z,21.52
2022-12-03T16:15:59.984Z,20.85
2022-12-03T16:27:22.745Z,26.58
2022-12-03T16:30:39.525Z,20.57
2022-12-03T16:33:49.900Z,25.25
2022-12-03T16:36:58.587Z,24.42
2022-12-03T16:40:07.126Z,23.40
2022-12-03T16:43:23.953Z,26.83
2022-12-03T16:54:09.898Z,24.60
2022-12-03T17:01:45.976Z,27.48
2022-12-03T17:05:09.951Z,26.07
2022-12-03T17:08:12.105Z,28.15
2022-12-03T17:11:36.877Z,26.67
2022-12-03T17:14:55.390Z,27.42
2022-12-03T17:18:32.376Z,25.15
2022-12-03T17:21:40.874Z,33.40
2022-12-03T17:25:04.856Z,29.80
2022-12-03T17:28:20.004Z,33.72
2022-12-03T17:31:41.910Z,25.25
2022-12-03T17:34:53.075Z,29.77
2022-12-03T17:41:44.938Z,29.17
2022-12-03T17:45:05.867Z,28.65
2022-12-03T17:48:20.998Z,27.40
2022-12-03T17:51:31.398Z,28.02
2022-12-03T18:06:17.678Z,29.00
2022-12-03T18:09:33.023Z,31.80
2022-12-03T18:12:50.001Z,30.73
2022-12-03T18:24:28.949Z,28.42
2022-12-03T18:27:52.454Z,31.77
2022-12-03T18:31:30.909Z,31.90
2022-12-03T18:34:57.812Z,35.03
2022-12-03T18:38:20.861Z,30.05
2022-12-03T18:41:39.979Z,30.17
2022-12-03T18:44:46.326Z,33.63
2022-12-03T18:48:03.971Z,33.53
2022-12-03T18:51:14.226Z,32.33
2022-12-03T18:58:04.225Z,30.30
2022-12-03T19:01:52.886Z,24.80
2022-12-03T19:05:16.084Z,33.40
2022-12-03T19:08:37.958Z,35.67
2022-12-03T19:12:14.470Z,32.38
2022-12-03T19:22:50.895Z,29.70
2022-12-03T19:26:02.303Z,33.03
2022-12-03T19:29:16.984Z,33.03
2022-12-03T19:32:48.923Z,34.95
2022-12-03T19:35:58.851Z,29.87
2022-12-03T19:39:07.931Z,32.77
2022-12-03T19:45:49.886Z,28.17
2022-12-03T19:48:59.033Z,34.10
2022-12-03T19:52:08.006Z,35.33
2022-12-03T19:55:22.925Z,29.40
2022-12-03T19:58:39.410Z,30.85
2022-12-03T20:05:33.401Z,31.52
2022-12-03T20:08:39.370Z,29.67
2022-12-03T20:11:58.350Z,35.07
2022-12-03T20:15:00.220Z,29.15
2022-12-03T20:18:14.886Z,36.13
2022-12-03T20:21:22.235Z,36.40
2022-12-03T20:24:43.937Z,30.70
2022-12-03T20:27:45.745Z,30.30
2022-12-03T20:31:05.982Z,33.85
2022-12-03T20:34:07.818Z,34.72
2022-12-03T20:37:23.886Z,30.85
2022-12-03T20:40:32.079Z,36.30
2022-12-03T20:43:40.600Z,32.80
2022-12-03T20:46:48.906Z,31.42
2022-12-03T20:49:58.582Z,32.22
2022-12-03T20:53:24.846Z,34.80
2022-12-03T21:00:43.908Z,34.80
2022-12-03T21:04:04.551Z,29.70
2022-12-03T21:11:03.092Z,32.03
2022-12-03T21:21:57.447Z,36.78
2022-12-03T21:25:18.908Z,31.35
2022-12-03T21:28:29.304Z,32.92
2022-12-03T21:31:43.888Z,34.20
2022-12-03T21:34:48.671Z,33.70
2022-12-03T21:38:04.296Z,36.05
2022-12-03T21:41:12.947Z,34.95
2022-12-03T21:44:26.919Z,32.25
2022-12-03T21:47:41.952Z,31.77
2022-12-03T21:51:08.917Z,33.93
2022-12-03T21:54:13.542Z,34.00
2022-12-03T21:57:33.194Z,34.13
2022-12-03T22:01:30.943Z,32.85
2022-12-03T22:04:45.979Z,33.55
2022-12-03T22:07:54.034Z,35.23
2022-12-03T22:11:20.015Z,28.87
2022-12-03T22:14:42.922Z,35.72
2022-12-03T22:17:55.099Z,33.15
2022-12-03T22:21:04.156Z,32.55
2022-12-03T22:24:21.478Z,29.97
2022-12-03T22:27:39.959Z,37.03
2022-12-03T22:30:48.876Z,32.75
2022-12-03T22:34:00.988Z,33.22
2022-12-03T22:37:15.934Z,36.65
2022-12-03T22:40:17.825Z,30.90
2022-12-03T22:43:32.909Z,34.95
2022-12-03T22:46:43.857Z,35.55
2022-12-03T22:50:02.905Z,35.25
2022-12-03T22:53:12.756Z,36.25
2022-12-03T22:56:39.901Z,31.90
2022-12-03T22:59:55.120Z,35.35
2022-12-03T23:03:13.543Z,36.28
2022-12-03T23:06:30.999Z,37.47
2022-12-03T23:09:32.727Z,30.27
2022-12-03T23:12:48.014Z,33.77
2022-12-03T23:15:58.046Z,35.13
2022-12-03T23:19:06.514Z,34.45
2022-12-03T23:22:16.131Z,33.72
2022-12-03T23:25:31.326Z,34.63
2022-12-03T23:28:42.931Z,34.37
2022-12-03T23:31:52.301Z,23.67
2022-12-03T23:35:03.963Z,36.80
2022-12-03T23:38:12.442Z,31.62
2022-12-03T23:41:29.959Z,29.95
2022-12-03T23:48:46.606Z,32.08
2022-12-03T23:52:01.247Z,34.00
2022-12-03T23:55:17.970Z,32.00
2022-12-03T23:58:29.212Z,27.30
